PWSweather.com
Personal Weather Stations
Station Observations
ROSEGARDEN
Rose Garden, Brentwood, CA 94513

Rose GardenBrentwood, CA 94513

Lat: 37.967503, Lon: -121.721004

Elevation: 85

Station Type: La Crosse 2813

High Low Average
Temperature 52.9°F11.6°C 39.8°F4.3°C 46.7°F8.2°C
Dew Point 44.5°F6.9°C 36.8°F2.7°C 40.9°F4.9°C
Winds 6.1 mph 9.8 kmh Calm Calm 2.0 mph WSW3.2 kmh WSW
Wind Gusts 10.3 mph16.6 kmh -- 4.0 mph6.4 kmh
Humidity 90% 63% 81%
Pressure 29.72 in1006.4 mb 29.52 in999.7 mb -
Precipitation 0.00 in0.0 mm - -
Hour Temp Dew Point Humidity Winds Wind Gusts Pressure Precip Precip Rate Daily Precip Total
12:01 AM 48.4°F9.1°C 42.1°F5.6°C 79% 4.6 mph SSW7.4 kmh SSW 8.1 mph13.0 kmh 29.73 in1006.8 mb 0.01 in0.3 mm 0.60 in/hr15.2 mm/hr 0.01 in0.3 mm
12:06 AM 48.4°F9.1°C 42.5°F5.8°C 80% 5.0 mph SSW8.0 kmh SSW 6.9 mph11.1 kmh 29.73 in1006.8 mb 0.01 in0.3 mm 0.00 in/hr0.0 mm/hr 0.01 in0.3 mm
12:11 AM 48.4°F9.1°C 42.1°F5.6°C 79% 4.5 mph SW7.2 kmh SW 6.9 mph11.1 kmh 29.73 in1006.8 mb 0.00 in0.0 mm 0.00 in/hr0.0 mm/hr 0.01 in0.3 mm
12:16 AM 48.4°F9.1°C 42.5°F5.8°C 80% 4.0 mph SSW6.4 kmh SSW 6.3 mph10.1 kmh 29.73 in1006.8 mb 0.00 in0.0 mm 0.00 in/hr0.0 mm/hr 0.01 in0.3 mm
12:22 AM 48.4°F9.1°C 42.5°F5.8°C 80% 4.2 mph SSW6.8 kmh SSW 6.3 mph10.1 kmh 29.73 in1006.8 mb 0.00 in0.0 mm 0.00 in/hr0.0 mm/hr 0.01 in0.3 mm
12:29 AM 48.2°F9.0°C 42.3°F5.7°C 80% 3.2 mph SW5.1 kmh SW 6.3 mph10.1 kmh 29.73 in1006.8 mb 0.00 in0.0 mm 0.00 in/hr0.0 mm/hr 0.01 in0.3 mm
12:34 AM 48.2°F9.0°C 42.3°F5.7°C 80% 2.5 mph SW4.0 kmh SW 4.9 mph7.9 kmh 29.73 in1006.8 mb 0.00 in0.0 mm 0.00 in/hr0.0 mm/hr 0.01 in0.3 mm
12:39 AM 48.2°F9.0°C 42.3°F5.7°C 80% 3.3 mph WSW5.3 kmh WSW 4.9 mph7.9 kmh 29.72 in1006.4 mb 0.00 in0.0 mm 0.00 in/hr0.0 mm/hr 0.01 in0.3 mm
12:46 AM 48.1°F8.9°C 42.1°F5.6°C 80% 2.1 mph SW3.4 kmh SW 4.9 mph7.9 kmh 29.72 in1006.4 mb 0.00 in0.0 mm 0.00 in/hr0.0 mm/hr 0.01 in0.3 mm
12:51 AM 47.9°F8.8°C 41.9°F5.5°C 80% 1.6 mph SW2.6 kmh SW 4.0 mph6.4 kmh 29.72 in1006.4 mb 0.00 in0.0 mm 0.00 in/hr0.0 mm/hr 0.01 in0.3 mm
12:56 AM 47.9°F8.8°C 41.9°F5.5°C 80% 2.6 mph SW4.2 kmh SW 3.4 mph5.5 kmh 29.72 in1006.4 mb 0.00 in0.0 mm 0.00 in/hr0.0 mm/hr 0.01 in0.3 mm
12:59 AM 47.9°F8.8°C 42.3°F5.7°C 81% 1.6 mph SW2.6 kmh SW 3.4 mph5.5 kmh 29.72 in1006.4 mb 0.00 in0.0 mm 0.00 in/hr0.0 mm/hr 0.01 in0.3 mm
01:05 AM 47.7°F8.7°C 42.1°F5.6°C 81% 2.2 mph WSW3.5 kmh WSW 3.1 mph5.0 kmh 29.72 in1006.4 mb 0.00 in0.0 mm 0.00 in/hr0.0 mm/hr 0.01 in0.3 mm
01:10 AM 47.5°F8.6°C 41.9°F5.5°C 81% 2.8 mph WSW4.5 kmh WSW 3.4 mph5.5 kmh 29.72 in1006.4 mb 0.00 in0.0 mm 0.00 in/hr0.0 mm/hr 0.01 in0.3 mm
01:15 AM 47.5°F8.6°C 41.9°F5.5°C 81% 2.6 mph WSW4.2 kmh WSW 4.0 mph6.4 kmh 29.72 in1006.4 mb 0.00 in0.0 mm 0.00 in/hr0.0 mm/hr 0.01 in0.3 mm
01:20 AM 47.3°F8.5°C 41.8°F5.4°C 81% 2.0 mph SW3.2 kmh SW 4.0 mph6.4 kmh 29.72 in1006.4 mb 0.00 in0.0 mm 0.00 in/hr0.0 mm/hr 0.01 in0.3 mm
01:26 AM 47.3°F8.5°C 42.1°F5.6°C 82% 3.1 mph WSW5.0 kmh WSW 4.3 mph6.9 kmh 29.72 in1006.4 mb 0.00 in0.0 mm 0.00 in/hr0.0 mm/hr 0.01 in0.3 mm
01:31 AM 47.3°F8.5°C 42.1°F5.6°C 82% 1.6 mph WSW2.6 kmh WSW 4.3 mph6.9 kmh 29.72 in1006.4 mb 0.00 in0.0 mm 0.00 in/hr0.0 mm/hr 0.01 in0.3 mm
01:36 AM 47.3°F8.5°C 42.1°F5.6°C 82% 0.6 mph WSW1.0 kmh WSW 3.8 mph6.1 kmh 29.72 in1006.4 mb 0.00 in0.0 mm 0.00 in/hr0.0 mm/hr 0.01 in0.3 mm
01:41 AM 47.2°F8.4°C 41.9°F5.5°C 82% 0.6 mph SW1.0 kmh SW 2.0 mph3.2 kmh 29.72 in1006.4 mb 0.00 in0.0 mm 0.00 in/hr0.0 mm/hr 0.01 in0.3 mm
01:46 AM 47.2°F8.4°C 41.9°F5.5°C 82% 0.8 mph W1.3 kmh W 1.8 mph2.9 kmh 29.72 in1006.4 mb 0.00 in0.0 mm 0.00 in/hr0.0 mm/hr 0.01 in0.3 mm
01:51 AM 47.0°F8.3°C 41.8°F5.4°C 82% 0.4 mph W0.6 kmh W 1.1 mph1.8 kmh 29.72 in1006.4 mb 0.00 in0.0 mm 0.00 in/hr0.0 mm/hr 0.01 in0.3 mm
01:56 AM 46.8°F8.2°C 42.0°F5.6°C 83% 1.5 mph WSW2.4 kmh WSW 2.0 mph3.2 kmh 29.72 in1006.4 mb 0.00 in0.0 mm 0.00 in/hr0.0 mm/hr 0.01 in0.3 mm
02:01 AM 46.6°F8.1°C 41.8°F5.4°C 83% 1.5 mph WSW2.4 kmh WSW 2.0 mph3.2 kmh 29.72 in1006.4 mb 0.00 in0.0 mm 0.00 in/hr0.0 mm/hr 0.01 in0.3 mm
02:06 AM 46.4°F8.0°C 41.6°F5.3°C 83% 1.7 mph WSW2.7 kmh WSW 2.0 mph3.2 kmh 29.72 in1006.4 mb 0.00 in0.0 mm 0.00 in/hr0.0 mm/hr 0.01 in0.3 mm
02:11 AM 46.4°F8.0°C 41.6°F5.3°C 83% 1.7 mph WSW2.7 kmh WSW 2.2 mph3.5 kmh 29.72 in1006.4 mb 0.00 in0.0 mm 0.00 in/hr0.0 mm/hr 0.01 in0.3 mm
02:17 AM 46.4°F8.0°C 41.6°F5.3°C 83% 1.0 mph W1.6 kmh W 2.2 mph3.5 kmh 29.72 in1006.4 mb 0.00 in0.0 mm 0.00 in/hr0.0 mm/hr 0.01 in0.3 mm
02:22 AM 46.6°F8.1°C 41.8°F5.4°C 83% 0.7 mph WNW1.1 kmh WNW 1.8 mph2.9 kmh 29.72 in1006.4 mb 0.00 in0.0 mm 0.00 in/hr0.0 mm/hr 0.01 in0.3 mm
02:29 AM 46.6°F8.1°C 41.8°F5.4°C 83% 2.2 mph W3.5 kmh W 2.5 mph4.0 kmh 29.72 in1006.4 mb 0.00 in0.0 mm 0.00 in/hr0.0 mm/hr 0.01 in0.3 mm
02:34 AM 46.6°F8.1°C 41.8°F5.4°C 83% 3.9 mph WSW6.3 kmh WSW 4.7 mph7.6 kmh 29.71 in1006.1 mb 0.00 in0.0 mm 0.00 in/hr0.0 mm/hr 0.01 in0.3 mm
02:39 AM 46.6°F8.1°C 41.5°F5.3°C 82% 4.2 mph WSW6.8 kmh WSW 6.9 mph11.1 kmh 29.70 in1005.8 mb 0.00 in0.0 mm 0.00 in/hr0.0 mm/hr 0.01 in0.3 mm
02:44 AM 46.6°F8.1°C 41.5°F5.3°C 82% 2.8 mph W4.5 kmh W 6.9 mph11.1 kmh 29.70 in1005.8 mb 0.00 in0.0 mm 0.00 in/hr0.0 mm/hr 0.01 in0.3 mm
02:49 AM 46.6°F8.1°C 41.1°F5.1°C 81% 1.0 mph W1.6 kmh W 5.4 mph8.7 kmh 29.70 in1005.8 mb 0.00 in0.0 mm 0.00 in/hr0.0 mm/hr 0.01 in0.3 mm
02:55 AM 46.6°F8.1°C 41.1°F5.1°C 81% Calm Calm 2.5 mph4.0 kmh 29.69 in1005.4 mb 0.00 in0.0 mm 0.00 in/hr0.0 mm/hr 0.01 in0.3 mm
03:00 AM 46.4°F8.0°C 41.0°F5.0°C 81% 1.7 mph SW2.7 kmh SW 2.0 mph3.2 kmh 29.69 in1005.4 mb 0.00 in0.0 mm 0.00 in/hr0.0 mm/hr 0.01 in0.3 mm
03:05 AM 46.3°F7.9°C 40.8°F4.9°C 81% 0.7 mph SSW1.1 kmh SSW 2.0 mph3.2 kmh 29.69 in1005.4 mb 0.00 in0.0 mm 0.00 in/hr0.0 mm/hr 0.01 in0.3 mm
03:12 AM 46.1°F7.8°C 41.0°F5.0°C 82% 1.9 mph ENE3.1 kmh ENE 3.6 mph5.8 kmh 29.69 in1005.4 mb 0.00 in0.0 mm 0.00 in/hr0.0 mm/hr 0.01 in0.3 mm
03:19 AM 45.7°F7.6°C 40.9°F4.9°C 83% 1.2 mph NE1.9 kmh NE 3.6 mph5.8 kmh 29.68 in1005.1 mb 0.00 in0.0 mm 0.00 in/hr0.0 mm/hr 0.01 in0.3 mm
03:24 AM 45.5°F7.5°C 40.7°F4.8°C 83% 1.1 mph WSW1.8 kmh WSW 2.5 mph4.0 kmh 29.68 in1005.1 mb 0.00 in0.0 mm 0.00 in/hr0.0 mm/hr 0.01 in0.3 mm
03:29 AM 45.4°F7.4°C 40.5°F4.7°C 83% 0.9 mph ESE1.4 kmh ESE 2.0 mph3.2 kmh 29.67 in1004.7 mb 0.00 in0.0 mm 0.00 in/hr0.0 mm/hr 0.01 in0.3 mm
03:34 AM 45.2°F7.3°C 40.7°F4.8°C 84% 2.2 mph E3.5 kmh E 3.4 mph5.5 kmh 29.67 in1004.7 mb 0.00 in0.0 mm 0.00 in/hr0.0 mm/hr 0.01 in0.3 mm
03:39 AM 45.0°F7.2°C 40.5°F4.7°C 84% 1.0 mph E1.6 kmh E 3.4 mph5.5 kmh 29.66 in1004.4 mb 0.00 in0.0 mm 0.00 in/hr0.0 mm/hr 0.01 in0.3 mm
03:45 AM 45.0°F7.2°C 40.8°F4.9°C 85% 1.0 mph SSW1.6 kmh SSW 1.8 mph2.9 kmh 29.66 in1004.4 mb 0.00 in0.0 mm 0.00 in/hr0.0 mm/hr 0.01 in0.3 mm
03:50 AM 45.0°F7.2°C 40.8°F4.9°C 85% 1.4 mph SSW2.3 kmh SSW 2.2 mph3.5 kmh 29.65 in1004.1 mb 0.00 in0.0 mm 0.00 in/hr0.0 mm/hr 0.01 in0.3 mm
03:55 AM 44.8°F7.1°C 40.3°F4.6°C 84% 0.4 mph SE0.6 kmh SE 2.2 mph3.5 kmh 29.65 in1004.1 mb 0.00 in0.0 mm 0.00 in/hr0.0 mm/hr 0.01 in0.3 mm
04:00 AM 44.6°F7.0°C 40.4°F4.7°C 85% 0.4 mph ESE0.6 kmh ESE 1.3 mph2.1 kmh 29.65 in1004.1 mb 0.00 in0.0 mm 0.00 in/hr0.0 mm/hr 0.01 in0.3 mm
04:05 AM 44.5°F6.9°C 40.2°F4.6°C 85% 1.5 mph SW2.4 kmh SW 1.8 mph2.9 kmh 29.64 in1003.7 mb 0.00 in0.0 mm 0.00 in/hr0.0 mm/hr 0.01 in0.3 mm
04:10 AM 44.3°F6.8°C 40.1°F4.5°C 85% 2.8 mph WSW4.5 kmh WSW 3.4 mph5.5 kmh 29.63 in1003.4 mb 0.00 in0.0 mm 0.00 in/hr0.0 mm/hr 0.01 in0.3 mm
04:15 AM 44.3°F6.8°C 40.1°F4.5°C 85% 0.8 mph SW1.3 kmh SW 3.4 mph5.5 kmh 29.63 in1003.4 mb 0.00 in0.0 mm 0.00 in/hr0.0 mm/hr 0.01 in0.3 mm
04:20 AM 44.1°F6.7°C 39.9°F4.4°C 85% 1.5 mph NE2.4 kmh NE 3.1 mph5.0 kmh 29.64 in1003.7 mb 0.00 in0.0 mm 0.00 in/hr0.0 mm/hr 0.01 in0.3 mm
04:25 AM 43.9°F6.6°C 40.0°F4.4°C 86% 1.9 mph NE3.1 kmh NE 4.0 mph6.4 kmh 29.64 in1003.7 mb 0.00 in0.0 mm 0.00 in/hr0.0 mm/hr 0.01 in0.3 mm
04:30 AM 43.7°F6.5°C 39.8°F4.3°C 86% 1.1 mph SW1.8 kmh SW 4.0 mph6.4 kmh 29.64 in1003.7 mb 0.00 in0.0 mm 0.00 in/hr0.0 mm/hr 0.01 in0.3 mm
04:35 AM 43.6°F6.4°C 39.6°F4.2°C 86% 0.6 mph SSE1.0 kmh SSE 2.5 mph4.0 kmh 29.64 in1003.7 mb 0.00 in0.0 mm 0.00 in/hr0.0 mm/hr 0.01 in0.3 mm
04:40 AM 43.4°F6.3°C 39.4°F4.1°C 86% 1.1 mph NE1.8 kmh NE 2.5 mph4.0 kmh 29.64 in1003.7 mb 0.00 in0.0 mm 0.00 in/hr0.0 mm/hr 0.01 in0.3 mm
04:45 AM 43.2°F6.2°C 39.0°F3.9°C 85% 0.4 mph WSW0.6 kmh WSW 2.2 mph3.5 kmh 29.64 in1003.7 mb 0.00 in0.0 mm 0.00 in/hr0.0 mm/hr 0.01 in0.3 mm
04:50 AM 42.8°F6.0°C 38.9°F3.8°C 86% 1.9 mph SW3.1 kmh SW 3.1 mph5.0 kmh 29.63 in1003.4 mb 0.00 in0.0 mm 0.00 in/hr0.0 mm/hr 0.01 in0.3 mm
04:55 AM 42.8°F6.0°C 39.3°F4.1°C 87% 1.2 mph NE1.9 kmh NE 3.1 mph5.0 kmh 29.64 in1003.7 mb 0.00 in0.0 mm 0.00 in/hr0.0 mm/hr 0.01 in0.3 mm
04:59 AM 42.7°F5.9°C 38.7°F3.7°C 86% 0.8 mph NE1.3 kmh NE 2.5 mph4.0 kmh 29.64 in1003.7 mb 0.00 in0.0 mm 0.00 in/hr0.0 mm/hr 0.01 in0.3 mm
05:04 AM 42.7°F5.9°C 39.3°F4.1°C 88% 3.2 mph SSW5.1 kmh SSW 3.6 mph5.8 kmh 29.64 in1003.7 mb 0.00 in0.0 mm 0.00 in/hr0.0 mm/hr 0.01 in0.3 mm
05:09 AM 42.5°F5.8°C 38.9°F3.8°C 87% 1.0 mph SW1.6 kmh SW 3.6 mph5.8 kmh 29.64 in1003.7 mb 0.00 in0.0 mm 0.00 in/hr0.0 mm/hr 0.01 in0.3 mm
05:14 AM 42.1°F5.6°C 38.5°F3.6°C 87% 0.5 mph NNE0.8 kmh NNE 3.1 mph5.0 kmh 29.64 in1003.7 mb 0.00 in0.0 mm 0.00 in/hr0.0 mm/hr 0.01 in0.3 mm
05:19 AM 42.1°F5.6°C 39.2°F4.0°C 89% 1.2 mph SSW1.9 kmh SSW 1.8 mph2.9 kmh 29.64 in1003.7 mb 0.00 in0.0 mm 0.00 in/hr0.0 mm/hr 0.01 in0.3 mm
05:24 AM 42.1°F5.6°C 38.5°F3.6°C 87% 0.6 mph SW1.0 kmh SW 2.5 mph4.0 kmh 29.64 in1003.7 mb 0.00 in0.0 mm 0.00 in/hr0.0 mm/hr 0.01 in0.3 mm
05:29 AM 41.8°F5.4°C 38.2°F3.4°C 87% 0.3 mph NW0.5 kmh NW 2.5 mph4.0 kmh 29.64 in1003.7 mb 0.00 in0.0 mm 0.00 in/hr0.0 mm/hr 0.01 in0.3 mm
05:35 AM 41.8°F5.4°C 38.2°F3.4°C 87% 0.6 mph WSW1.0 kmh WSW 1.1 mph1.8 kmh 29.64 in1003.7 mb 0.00 in0.0 mm 0.00 in/hr0.0 mm/hr 0.01 in0.3 mm
05:40 AM 41.6°F5.3°C 38.0°F3.3°C 87% 0.9 mph S1.4 kmh S 1.1 mph1.8 kmh 29.63 in1003.4 mb 0.00 in0.0 mm 0.00 in/hr0.0 mm/hr 0.01 in0.3 mm
05:45 AM 41.4°F5.2°C 37.8°F3.2°C 87% 0.6 mph S1.0 kmh S 1.6 mph2.6 kmh 29.62 in1003.0 mb 0.00 in0.0 mm 0.00 in/hr0.0 mm/hr 0.01 in0.3 mm
05:50 AM 41.4°F5.2°C 38.1°F3.4°C 88% 0.2 mph S0.3 kmh S 1.6 mph2.6 kmh 29.62 in1003.0 mb 0.00 in0.0 mm 0.00 in/hr0.0 mm/hr 0.01 in0.3 mm
05:55 AM 41.4°F5.2°C 37.8°F3.2°C 87% Calm Calm 0.4 mph0.6 kmh 29.61 in1002.7 mb 0.00 in0.0 mm 0.00 in/hr0.0 mm/hr 0.01 in0.3 mm
06:00 AM 41.2°F5.1°C 37.9°F3.3°C 88% Calm Calm -- 29.61 in1002.7 mb 0.00 in0.0 mm 0.00 in/hr0.0 mm/hr 0.01 in0.3 mm
06:05 AM 41.0°F5.0°C 37.7°F3.2°C 88% 1.1 mph WSW1.8 kmh WSW 1.1 mph1.8 kmh 29.62 in1003.0 mb 0.00 in0.0 mm 0.00 in/hr0.0 mm/hr 0.01 in0.3 mm
06:10 AM 40.9°F4.9°C 37.5°F3.1°C 88% 2.1 mph WSW3.4 kmh WSW 2.9 mph4.7 kmh 29.63 in1003.4 mb 0.00 in0.0 mm 0.00 in/hr0.0 mm/hr 0.01 in0.3 mm
06:15 AM 40.7°F4.8°C 37.7°F3.2°C 89% 1.0 mph SW1.6 kmh SW 2.9 mph4.7 kmh 29.63 in1003.4 mb 0.00 in0.0 mm 0.00 in/hr0.0 mm/hr 0.01 in0.3 mm
06:20 AM 40.9°F4.9°C 38.2°F3.4°C 90% 1.6 mph SW2.6 kmh SW 2.9 mph4.7 kmh 29.63 in1003.4 mb 0.00 in0.0 mm 0.00 in/hr0.0 mm/hr 0.01 in0.3 mm
06:25 AM 40.7°F4.8°C 37.7°F3.2°C 89% 1.0 mph SW1.6 kmh SW 2.2 mph3.5 kmh 29.63 in1003.4 mb 0.00 in0.0 mm 0.00 in/hr0.0 mm/hr 0.01 in0.3 mm
06:30 AM 40.5°F4.7°C 37.2°F2.9°C 88% Calm Calm 2.2 mph3.5 kmh 29.63 in1003.4 mb 0.00 in0.0 mm 0.00 in/hr0.0 mm/hr 0.01 in0.3 mm
06:35 AM 40.3°F4.6°C 37.0°F2.8°C 88% 0.2 mph SSW0.3 kmh SSW 0.4 mph0.6 kmh 29.62 in1003.0 mb 0.00 in0.0 mm 0.00 in/hr0.0 mm/hr 0.01 in0.3 mm
06:40 AM 40.3°F4.6°C 37.4°F3.0°C 89% 1.4 mph SW2.3 kmh SW 1.6 mph2.6 kmh 29.62 in1003.0 mb 0.00 in0.0 mm 0.00 in/hr0.0 mm/hr 0.01 in0.3 mm
06:46 AM 40.1°F4.5°C 37.2°F2.9°C 89% 0.9 mph SW1.4 kmh SW 1.6 mph2.6 kmh 29.62 in1003.0 mb 0.00 in0.0 mm 0.00 in/hr0.0 mm/hr 0.01 in0.3 mm
06:51 AM 40.1°F4.5°C 37.2°F2.9°C 89% 0.7 mph SW1.1 kmh SW 1.6 mph2.6 kmh 29.61 in1002.7 mb 0.00 in0.0 mm 0.00 in/hr0.0 mm/hr 0.01 in0.3 mm
06:56 AM 40.0°F4.4°C 37.0°F2.8°C 89% 0.6 mph WSW1.0 kmh WSW 1.3 mph2.1 kmh 29.61 in1002.7 mb 0.00 in0.0 mm 0.00 in/hr0.0 mm/hr 0.01 in0.3 mm
07:01 AM 40.0°F4.4°C 37.0°F2.8°C 89% 0.5 mph W0.8 kmh W 1.3 mph2.1 kmh 29.61 in1002.7 mb 0.00 in0.0 mm 0.00 in/hr0.0 mm/hr 0.01 in0.3 mm
07:06 AM 40.0°F4.4°C 37.0°F2.8°C 89% 2.0 mph W3.2 kmh W 2.5 mph4.0 kmh 29.61 in1002.7 mb 0.00 in0.0 mm 0.00 in/hr0.0 mm/hr 0.01 in0.3 mm
07:11 AM 40.0°F4.4°C 37.0°F2.8°C 89% 1.7 mph W2.7 kmh W 2.5 mph4.0 kmh 29.61 in1002.7 mb 0.00 in0.0 mm 0.00 in/hr0.0 mm/hr 0.01 in0.3 mm
07:16 AM 40.0°F4.4°C 37.0°F2.8°C 89% 0.9 mph WSW1.4 kmh WSW 2.5 mph4.0 kmh 29.61 in1002.7 mb 0.00 in0.0 mm 0.00 in/hr0.0 mm/hr 0.01 in0.3 mm
07:21 AM 39.8°F4.3°C 36.8°F2.7°C 89% 1.3 mph WSW2.1 kmh WSW 1.8 mph2.9 kmh 29.60 in1002.4 mb 0.00 in0.0 mm 0.00 in/hr0.0 mm/hr 0.01 in0.3 mm
07:26 AM 40.0°F4.4°C 37.0°F2.8°C 89% 0.8 mph W1.3 kmh W 1.8 mph2.9 kmh 29.59 in1002.0 mb 0.00 in0.0 mm 0.00 in/hr0.0 mm/hr 0.01 in0.3 mm
07:31 AM 40.0°F4.4°C 37.0°F2.8°C 89% 0.3 mph WSW0.5 kmh WSW 1.3 mph2.1 kmh 29.59 in1002.0 mb 0.00 in0.0 mm 0.00 in/hr0.0 mm/hr 0.01 in0.3 mm
07:36 AM 40.0°F4.4°C 37.0°F2.8°C 89% 0.6 mph WNW1.0 kmh WNW 1.1 mph1.8 kmh 29.59 in1002.0 mb 0.00 in0.0 mm 0.00 in/hr0.0 mm/hr 0.01 in0.3 mm
07:42 AM 40.1°F4.5°C 37.2°F2.9°C 89% 0.5 mph WSW0.8 kmh WSW 1.1 mph1.8 kmh 29.59 in1002.0 mb 0.00 in0.0 mm 0.00 in/hr0.0 mm/hr 0.01 in0.3 mm
07:47 AM 40.1°F4.5°C 37.2°F2.9°C 89% 0.8 mph SW1.3 kmh SW 1.1 mph1.8 kmh 29.59 in1002.0 mb 0.00 in0.0 mm 0.00 in/hr0.0 mm/hr 0.01 in0.3 mm
07:52 AM 40.1°F4.5°C 37.2°F2.9°C 89% Calm Calm 1.1 mph1.8 kmh 29.59 in1002.0 mb 0.00 in0.0 mm 0.00 in/hr0.0 mm/hr 0.01 in0.3 mm
07:57 AM 40.3°F4.6°C 37.4°F3.0°C 89% 1.3 mph WSW2.1 kmh WSW 1.6 mph2.6 kmh 29.59 in1002.0 mb 0.00 in0.0 mm 0.00 in/hr0.0 mm/hr 0.01 in0.3 mm
08:02 AM 40.3°F4.6°C 37.4°F3.0°C 89% 1.5 mph W2.4 kmh W 1.8 mph2.9 kmh 29.59 in1002.0 mb 0.00 in0.0 mm 0.00 in/hr0.0 mm/hr 0.01 in0.3 mm
08:07 AM 40.7°F4.8°C 38.0°F3.3°C 90% 1.1 mph WNW1.8 kmh WNW 2.0 mph3.2 kmh 29.58 in1001.7 mb 0.00 in0.0 mm 0.00 in/hr0.0 mm/hr 0.01 in0.3 mm
08:12 AM 40.9°F4.9°C 38.2°F3.4°C 90% 0.8 mph W1.3 kmh W 2.0 mph3.2 kmh 29.58 in1001.7 mb 0.00 in0.0 mm 0.00 in/hr0.0 mm/hr 0.01 in0.3 mm
08:17 AM 41.0°F5.0°C 38.3°F3.5°C 90% 1.0 mph WSW1.6 kmh WSW 1.6 mph2.6 kmh 29.58 in1001.7 mb 0.00 in0.0 mm 0.00 in/hr0.0 mm/hr 0.01 in0.3 mm
08:23 AM 41.2°F5.1°C 38.3°F3.5°C 89% 0.2 mph W0.3 kmh W 1.3 mph2.1 kmh 29.57 in1001.4 mb 0.00 in0.0 mm 0.00 in/hr0.0 mm/hr 0.01 in0.3 mm
08:28 AM 41.6°F5.3°C 38.9°F3.8°C 90% 1.5 mph SW2.4 kmh SW 2.0 mph3.2 kmh 29.57 in1001.4 mb 0.00 in0.0 mm 0.00 in/hr0.0 mm/hr 0.01 in0.3 mm
08:33 AM 41.8°F5.4°C 38.8°F3.8°C 89% 0.8 mph WSW1.3 kmh WSW 2.0 mph3.2 kmh 29.57 in1001.4 mb 0.00 in0.0 mm 0.00 in/hr0.0 mm/hr 0.01 in0.3 mm
08:38 AM 42.1°F5.6°C 39.2°F4.0°C 89% 1.1 mph SW1.8 kmh SW 1.8 mph2.9 kmh 29.57 in1001.4 mb 0.00 in0.0 mm 0.00 in/hr0.0 mm/hr 0.01 in0.3 mm
08:43 AM 42.5°F5.8°C 39.8°F4.3°C 90% 0.5 mph WSW0.8 kmh WSW 2.2 mph3.5 kmh 29.58 in1001.7 mb 0.00 in0.0 mm 0.00 in/hr0.0 mm/hr 0.01 in0.3 mm
08:48 AM 42.8°F6.0°C 39.9°F4.4°C 89% 0.4 mph W0.6 kmh W 2.2 mph3.5 kmh 29.58 in1001.7 mb 0.00 in0.0 mm 0.00 in/hr0.0 mm/hr 0.01 in0.3 mm
08:53 AM 43.2°F6.2°C 40.2°F4.6°C 89% Calm Calm 0.9 mph1.4 kmh 29.58 in1001.7 mb 0.00 in0.0 mm 0.00 in/hr0.0 mm/hr 0.01 in0.3 mm
08:57 AM 43.6°F6.4°C 40.6°F4.8°C 89% 0.8 mph WSW1.3 kmh WSW 1.1 mph1.8 kmh 29.58 in1001.7 mb 0.00 in0.0 mm 0.00 in/hr0.0 mm/hr 0.01 in0.3 mm
09:02 AM 43.9°F6.6°C 41.0°F5.0°C 89% 0.7 mph W1.1 kmh W 1.3 mph2.1 kmh 29.58 in1001.7 mb 0.00 in0.0 mm 0.00 in/hr0.0 mm/hr 0.01 in0.3 mm
09:07 AM 44.5°F6.9°C 41.5°F5.3°C 89% 0.9 mph W1.4 kmh W 1.3 mph2.1 kmh 29.58 in1001.7 mb 0.00 in0.0 mm 0.00 in/hr0.0 mm/hr 0.01 in0.3 mm
09:12 AM 45.0°F7.2°C 42.3°F5.7°C 90% 0.7 mph WNW1.1 kmh WNW 2.5 mph4.0 kmh 29.58 in1001.7 mb 0.00 in0.0 mm 0.00 in/hr0.0 mm/hr 0.01 in0.3 mm
09:17 AM 45.4°F7.4°C 42.4°F5.8°C 89% 0.5 mph NNW0.8 kmh NNW 2.5 mph4.0 kmh 29.58 in1001.7 mb 0.00 in0.0 mm 0.00 in/hr0.0 mm/hr 0.01 in0.3 mm
09:22 AM 45.7°F7.6°C 42.4°F5.8°C 88% 0.7 mph N1.1 kmh N 1.1 mph1.8 kmh 29.58 in1001.7 mb 0.00 in0.0 mm 0.00 in/hr0.0 mm/hr 0.01 in0.3 mm
09:28 AM 46.1°F7.8°C 42.8°F6.0°C 88% 0.4 mph N0.6 kmh N 2.0 mph3.2 kmh 29.58 in1001.7 mb 0.00 in0.0 mm 0.00 in/hr0.0 mm/hr 0.01 in0.3 mm
09:33 AM 46.3°F7.9°C 42.9°F6.1°C 88% 0.5 mph SE0.8 kmh SE 2.0 mph3.2 kmh 29.58 in1001.7 mb 0.00 in0.0 mm 0.00 in/hr0.0 mm/hr 0.01 in0.3 mm
09:38 AM 46.4°F8.0°C 42.9°F6.1°C 87% Calm Calm 1.1 mph1.8 kmh 29.59 in1002.0 mb 0.00 in0.0 mm 0.00 in/hr0.0 mm/hr 0.01 in0.3 mm
09:43 AM 46.6°F8.1°C 43.0°F6.1°C 87% 0.3 mph W0.5 kmh W 0.4 mph0.6 kmh 29.59 in1002.0 mb 0.00 in0.0 mm 0.00 in/hr0.0 mm/hr 0.01 in0.3 mm
09:48 AM 47.0°F8.3°C 43.4°F6.3°C 87% Calm Calm 0.4 mph0.6 kmh 29.58 in1001.7 mb 0.00 in0.0 mm 0.00 in/hr0.0 mm/hr 0.01 in0.3 mm
09:53 AM 47.2°F8.4°C 43.6°F6.4°C 87% 0.3 mph NW0.5 kmh NW 0.7 mph1.1 kmh 29.58 in1001.7 mb 0.00 in0.0 mm 0.00 in/hr0.0 mm/hr 0.01 in0.3 mm
09:58 AM 47.5°F8.6°C 43.6°F6.4°C 86% 0.3 mph 0.5 kmh 1.1 mph1.8 kmh 29.58 in1001.7 mb 0.00 in0.0 mm 0.00 in/hr0.0 mm/hr 0.01 in0.3 mm
10:03 AM 47.9°F8.8°C 43.9°F6.6°C 86% 0.9 mph NNW1.4 kmh NNW 1.3 mph2.1 kmh 29.57 in1001.4 mb 0.00 in0.0 mm 0.00 in/hr0.0 mm/hr 0.01 in0.3 mm
10:09 AM 47.9°F8.8°C 43.6°F6.4°C 85% 1.2 mph NW1.9 kmh NW 2.5 mph4.0 kmh 29.57 in1001.4 mb 0.00 in0.0 mm 0.00 in/hr0.0 mm/hr 0.01 in0.3 mm
10:14 AM 48.1°F8.9°C 43.7°F6.5°C 85% 1.2 mph NNW1.9 kmh NNW 2.5 mph4.0 kmh 29.57 in1001.4 mb 0.00 in0.0 mm 0.00 in/hr0.0 mm/hr 0.01 in0.3 mm
10:19 AM 48.1°F8.9°C 43.5°F6.4°C 84% 1.5 mph NW2.4 kmh NW 2.5 mph4.0 kmh 29.56 in1001.0 mb 0.00 in0.0 mm 0.00 in/hr0.0 mm/hr 0.01 in0.3 mm
10:24 AM 48.2°F9.0°C 43.9°F6.6°C 85% 1.5 mph NNW2.4 kmh NNW 2.9 mph4.7 kmh 29.57 in1001.4 mb 0.00 in0.0 mm 0.00 in/hr0.0 mm/hr 0.01 in0.3 mm
10:29 AM 48.4°F9.1°C 44.1°F6.7°C 85% 2.2 mph NW3.5 kmh NW 2.9 mph4.7 kmh 29.56 in1001.0 mb 0.00 in0.0 mm 0.00 in/hr0.0 mm/hr 0.01 in0.3 mm
10:34 AM 48.4°F9.1°C 43.7°F6.5°C 84% 1.9 mph NW3.1 kmh NW 2.9 mph4.7 kmh 29.57 in1001.4 mb 0.00 in0.0 mm 0.00 in/hr0.0 mm/hr 0.01 in0.3 mm
10:39 AM 48.4°F9.1°C 44.1°F6.7°C 85% 4.4 mph W7.1 kmh W 6.9 mph11.1 kmh 29.57 in1001.4 mb 0.00 in0.0 mm 0.00 in/hr0.0 mm/hr 0.01 in0.3 mm
10:44 AM 48.6°F9.2°C 43.9°F6.6°C 84% 3.5 mph WNW5.6 kmh WNW 6.9 mph11.1 kmh 29.57 in1001.4 mb 0.00 in0.0 mm 0.00 in/hr0.0 mm/hr 0.01 in0.3 mm
10:50 AM 48.6°F9.2°C 44.3°F6.8°C 85% 2.1 mph WNW3.4 kmh WNW 4.7 mph7.6 kmh 29.57 in1001.4 mb 0.00 in0.0 mm 0.00 in/hr0.0 mm/hr 0.01 in0.3 mm
10:55 AM 48.8°F9.3°C 44.5°F6.9°C 85% 3.2 mph NW5.1 kmh NW 4.7 mph7.6 kmh 29.57 in1001.4 mb 0.00 in0.0 mm 0.00 in/hr0.0 mm/hr 0.01 in0.3 mm
11:00 AM 48.8°F9.3°C 44.5°F6.9°C 85% 1.7 mph N2.7 kmh N 4.7 mph7.6 kmh 29.57 in1001.4 mb 0.00 in0.0 mm 0.00 in/hr0.0 mm/hr 0.01 in0.3 mm
11:05 AM 48.8°F9.3°C 44.1°F6.7°C 84% 3.3 mph NW5.3 kmh NW 6.3 mph10.1 kmh 29.57 in1001.4 mb 0.00 in0.0 mm 0.00 in/hr0.0 mm/hr 0.01 in0.3 mm
11:10 AM 48.8°F9.3°C 43.8°F6.6°C 83% 2.4 mph NW3.9 kmh NW 6.3 mph10.1 kmh 29.57 in1001.4 mb 0.00 in0.0 mm 0.00 in/hr0.0 mm/hr 0.01 in0.3 mm
11:15 AM 49.0°F9.4°C 44.3°F6.8°C 84% 2.8 mph NNW4.5 kmh NNW 4.0 mph6.4 kmh 29.57 in1001.4 mb 0.00 in0.0 mm 0.00 in/hr0.0 mm/hr 0.01 in0.3 mm
11:20 AM 49.0°F9.4°C 44.0°F6.7°C 83% 2.3 mph NW3.7 kmh NW 4.3 mph6.9 kmh 29.56 in1001.0 mb 0.00 in0.0 mm 0.00 in/hr0.0 mm/hr 0.01 in0.3 mm
11:25 AM 49.1°F9.5°C 44.1°F6.7°C 83% 3.0 mph NW4.8 kmh NW 4.5 mph7.2 kmh 29.56 in1001.0 mb 0.00 in0.0 mm 0.00 in/hr0.0 mm/hr 0.01 in0.3 mm
11:30 AM 49.3°F9.6°C 44.0°F6.7°C 82% 3.2 mph NNW5.1 kmh NNW 4.7 mph7.6 kmh 29.56 in1001.0 mb 0.00 in0.0 mm 0.00 in/hr0.0 mm/hr 0.01 in0.3 mm
11:35 AM 49.3°F9.6°C 44.0°F6.7°C 82% 4.0 mph NW6.4 kmh NW 6.3 mph10.1 kmh 29.56 in1001.0 mb 0.00 in0.0 mm 0.00 in/hr0.0 mm/hr 0.01 in0.3 mm
11:40 AM 49.3°F9.6°C 43.4°F6.3°C 80% 3.8 mph NW6.1 kmh NW 7.6 mph12.2 kmh 29.56 in1001.0 mb 0.00 in0.0 mm 0.00 in/hr0.0 mm/hr 0.01 in0.3 mm
11:45 AM 49.5°F9.7°C 42.8°F6.0°C 78% 2.7 mph WNW4.3 kmh WNW 7.6 mph12.2 kmh 29.57 in1001.4 mb 0.00 in0.0 mm 0.00 in/hr0.0 mm/hr 0.01 in0.3 mm
11:50 AM 49.9°F9.9°C 43.2°F6.2°C 78% 3.0 mph NW4.8 kmh NW 5.8 mph9.3 kmh 29.57 in1001.4 mb 0.00 in0.0 mm 0.00 in/hr0.0 mm/hr 0.01 in0.3 mm
11:55 AM 50.0°F10.0°C 42.8°F6.0°C 76% 2.7 mph NW4.3 kmh NW 5.8 mph9.3 kmh 29.56 in1001.0 mb 0.00 in0.0 mm 0.00 in/hr0.0 mm/hr 0.01 in0.3 mm
12:00 PM 50.0°F10.0°C 42.0°F5.6°C 74% 3.1 mph NW5.0 kmh NW 5.4 mph8.7 kmh 29.56 in1001.0 mb 0.00 in0.0 mm 0.00 in/hr0.0 mm/hr 0.01 in0.3 mm
12:05 PM 50.2°F10.1°C 41.9°F5.5°C 73% 5.2 mph W8.4 kmh W 8.9 mph14.3 kmh 29.56 in1001.0 mb 0.00 in0.0 mm 0.00 in/hr0.0 mm/hr 0.01 in0.3 mm
12:10 PM 50.0°F10.0°C 41.7°F5.4°C 73% 4.1 mph NW6.6 kmh NW 8.9 mph14.3 kmh 29.56 in1001.0 mb 0.00 in0.0 mm 0.00 in/hr0.0 mm/hr 0.01 in0.3 mm
12:15 PM 50.0°F10.0°C 41.1°F5.1°C 71% 5.8 mph NNW9.3 kmh NNW 7.2 mph11.6 kmh 29.55 in1000.7 mb 0.00 in0.0 mm 0.00 in/hr0.0 mm/hr 0.01 in0.3 mm
12:21 PM 50.0°F10.0°C 41.4°F5.2°C 72% 3.4 mph NW5.5 kmh NW 7.2 mph11.6 kmh 29.55 in1000.7 mb 0.00 in0.0 mm 0.00 in/hr0.0 mm/hr 0.01 in0.3 mm
12:26 PM 50.2°F10.1°C 41.6°F5.3°C 72% 3.1 mph NW5.0 kmh NW 6.0 mph9.7 kmh 29.55 in1000.7 mb 0.00 in0.0 mm 0.00 in/hr0.0 mm/hr 0.01 in0.3 mm
12:31 PM 50.4°F10.2°C 41.8°F5.4°C 72% 4.9 mph W7.9 kmh W 8.5 mph13.7 kmh 29.54 in1000.3 mb 0.00 in0.0 mm 0.00 in/hr0.0 mm/hr 0.01 in0.3 mm
12:36 PM 50.2°F10.1°C 41.9°F5.5°C 73% 4.0 mph N6.4 kmh N 8.5 mph13.7 kmh 29.54 in1000.3 mb 0.00 in0.0 mm 0.00 in/hr0.0 mm/hr 0.01 in0.3 mm
12:41 PM 50.4°F10.2°C 42.0°F5.6°C 73% 3.8 mph NW6.1 kmh NW 7.2 mph11.6 kmh 29.54 in1000.3 mb 0.00 in0.0 mm 0.00 in/hr0.0 mm/hr 0.01 in0.3 mm
12:46 PM 50.2°F10.1°C 41.9°F5.5°C 73% 5.0 mph NW8.0 kmh NW 7.6 mph12.2 kmh 29.54 in1000.3 mb 0.00 in0.0 mm 0.00 in/hr0.0 mm/hr 0.01 in0.3 mm
12:51 PM 50.4°F10.2°C 41.8°F5.4°C 72% 3.9 mph WNW6.3 kmh WNW 9.2 mph14.8 kmh 29.54 in1000.3 mb 0.00 in0.0 mm 0.00 in/hr0.0 mm/hr 0.01 in0.3 mm
12:56 PM 50.6°F10.3°C 41.6°F5.3°C 71% 3.9 mph NW6.3 kmh NW 9.2 mph14.8 kmh 29.54 in1000.3 mb 0.00 in0.0 mm 0.00 in/hr0.0 mm/hr 0.01 in0.3 mm
01:00 PM 50.6°F10.3°C 42.0°F5.6°C 72% 4.5 mph NW7.2 kmh NW 6.7 mph10.8 kmh 29.54 in1000.3 mb 0.00 in0.0 mm 0.00 in/hr0.0 mm/hr 0.01 in0.3 mm
01:05 PM 50.8°F10.4°C 42.1°F5.6°C 72% 3.0 mph NW4.8 kmh NW 6.7 mph10.8 kmh 29.54 in1000.3 mb 0.00 in0.0 mm 0.00 in/hr0.0 mm/hr 0.01 in0.3 mm
01:11 PM 50.8°F10.4°C 42.1°F5.6°C 72% 3.4 mph NNW5.5 kmh NNW 6.7 mph10.8 kmh 29.54 in1000.3 mb 0.00 in0.0 mm 0.00 in/hr0.0 mm/hr 0.01 in0.3 mm
01:16 PM 50.8°F10.4°C 42.1°F5.6°C 72% 2.7 mph N4.3 kmh N 10.3 mph16.6 kmh 29.53 in1000.0 mb 0.00 in0.0 mm 0.00 in/hr0.0 mm/hr 0.01 in0.3 mm
01:21 PM 50.9°F10.5°C 42.3°F5.7°C 72% 3.1 mph NW5.0 kmh NW 10.3 mph16.6 kmh 29.53 in1000.0 mb 0.00 in0.0 mm 0.00 in/hr0.0 mm/hr 0.01 in0.3 mm
01:26 PM 50.9°F10.5°C 41.6°F5.3°C 70% 5.4 mph NNW8.7 kmh NNW 9.2 mph14.8 kmh 29.53 in1000.0 mb 0.00 in0.0 mm 0.00 in/hr0.0 mm/hr 0.01 in0.3 mm
01:31 PM 51.1°F10.6°C 42.1°F5.6°C 71% 4.4 mph N7.1 kmh N 9.2 mph14.8 kmh 29.53 in1000.0 mb 0.00 in0.0 mm 0.00 in/hr0.0 mm/hr 0.01 in0.3 mm
01:36 PM 51.1°F10.6°C 41.3°F5.2°C 69% 5.4 mph NW8.7 kmh NW 8.7 mph14.0 kmh 29.53 in1000.0 mb 0.00 in0.0 mm 0.00 in/hr0.0 mm/hr 0.01 in0.3 mm
01:41 PM 51.1°F10.6°C 41.8°F5.4°C 70% 3.7 mph NNW6.0 kmh NNW 8.3 mph13.4 kmh 29.53 in1000.0 mb 0.00 in0.0 mm 0.00 in/hr0.0 mm/hr 0.01 in0.3 mm
01:46 PM 51.3°F10.7°C 41.1°F5.1°C 68% 5.6 mph NNW9.0 kmh NNW 8.3 mph13.4 kmh 29.53 in1000.0 mb 0.00 in0.0 mm 0.00 in/hr0.0 mm/hr 0.01 in0.3 mm
01:52 PM 51.5°F10.8°C 41.7°F5.4°C 69% 4.9 mph NW7.9 kmh NW 6.9 mph11.1 kmh 29.53 in1000.0 mb 0.00 in0.0 mm 0.00 in/hr0.0 mm/hr 0.01 in0.3 mm
01:57 PM 51.5°F10.8°C 41.3°F5.2°C 68% 4.8 mph NNW7.7 kmh NNW 6.7 mph10.8 kmh 29.53 in1000.0 mb 0.00 in0.0 mm 0.00 in/hr0.0 mm/hr 0.01 in0.3 mm
02:02 PM 51.5°F10.8°C 41.3°F5.2°C 68% 4.8 mph NW7.7 kmh NW 6.7 mph10.8 kmh 29.53 in1000.0 mb 0.00 in0.0 mm 0.00 in/hr0.0 mm/hr 0.01 in0.3 mm
02:07 PM 51.5°F10.8°C 41.3°F5.2°C 68% 2.9 mph NW4.7 kmh NW 7.8 mph12.6 kmh 29.53 in1000.0 mb 0.00 in0.0 mm 0.00 in/hr0.0 mm/hr 0.01 in0.3 mm
02:12 PM 51.5°F10.8°C 41.7°F5.4°C 69% 2.7 mph NW4.3 kmh NW 7.8 mph12.6 kmh 29.53 in1000.0 mb 0.00 in0.0 mm 0.00 in/hr0.0 mm/hr 0.01 in0.3 mm
02:17 PM 51.7°F10.9°C 41.9°F5.5°C 69% 2.3 mph N3.7 kmh N 6.9 mph11.1 kmh 29.53 in1000.0 mb 0.00 in0.0 mm 0.00 in/hr0.0 mm/hr 0.01 in0.3 mm
02:22 PM 51.8°F11.0°C 41.2°F5.1°C 67% 4.7 mph NW7.6 kmh NW 6.7 mph10.8 kmh 29.52 in999.7 mb 0.00 in0.0 mm 0.00 in/hr0.0 mm/hr 0.01 in0.3 mm
02:27 PM 51.8°F11.0°C 41.2°F5.1°C 67% 4.2 mph NW6.8 kmh NW 9.8 mph15.8 kmh 29.52 in999.7 mb 0.00 in0.0 mm 0.00 in/hr0.0 mm/hr 0.01 in0.3 mm
02:32 PM 51.7°F10.9°C 40.7°F4.8°C 66% 3.5 mph NW5.6 kmh NW 9.8 mph15.8 kmh 29.52 in999.7 mb 0.00 in0.0 mm 0.00 in/hr0.0 mm/hr 0.01 in0.3 mm
02:37 PM 51.7°F10.9°C 40.7°F4.8°C 66% 4.1 mph NNW6.6 kmh NNW 9.8 mph15.8 kmh 29.52 in999.7 mb 0.00 in0.0 mm 0.00 in/hr0.0 mm/hr 0.01 in0.3 mm
02:42 PM 51.7°F10.9°C 40.7°F4.8°C 66% 4.4 mph N7.1 kmh N 6.3 mph10.1 kmh 29.53 in1000.0 mb 0.00 in0.0 mm 0.00 in/hr0.0 mm/hr 0.01 in0.3 mm
02:47 PM 51.7°F10.9°C 41.0°F5.0°C 67% 6.1 mph N9.8 kmh N 6.9 mph11.1 kmh 29.53 in1000.0 mb 0.00 in0.0 mm 0.00 in/hr0.0 mm/hr 0.01 in0.3 mm
02:52 PM 51.8°F11.0°C 41.7°F5.4°C 68% 3.8 mph N6.1 kmh N 7.2 mph11.6 kmh 29.53 in1000.0 mb 0.00 in0.0 mm 0.00 in/hr0.0 mm/hr 0.01 in0.3 mm
02:57 PM 51.8°F11.0°C 41.7°F5.4°C 68% 3.4 mph N5.5 kmh N 7.2 mph11.6 kmh 29.53 in1000.0 mb 0.00 in0.0 mm 0.00 in/hr0.0 mm/hr 0.01 in0.3 mm
03:03 PM 51.8°F11.0°C 41.7°F5.4°C 68% 1.4 mph NW2.3 kmh NW 5.6 mph9.0 kmh 29.53 in1000.0 mb 0.00 in0.0 mm 0.00 in/hr0.0 mm/hr 0.01 in0.3 mm
03:08 PM 52.0°F11.1°C 42.2°F5.7°C 69% 1.4 mph N2.3 kmh N 3.8 mph6.1 kmh 29.52 in999.7 mb 0.00 in0.0 mm 0.00 in/hr0.0 mm/hr 0.01 in0.3 mm
03:13 PM 52.0°F11.1°C 42.2°F5.7°C 69% 1.4 mph N2.3 kmh N 3.8 mph6.1 kmh 29.52 in999.7 mb 0.00 in0.0 mm 0.00 in/hr0.0 mm/hr 0.01 in0.3 mm
03:18 PM 52.0°F11.1°C 42.2°F5.7°C 69% 1.2 mph NNW1.9 kmh NNW 3.1 mph5.0 kmh 29.52 in999.7 mb 0.00 in0.0 mm 0.00 in/hr0.0 mm/hr 0.01 in0.3 mm
03:23 PM 52.0°F11.1°C 42.2°F5.7°C 69% 2.1 mph NW3.4 kmh NW 3.4 mph5.5 kmh 29.52 in999.7 mb 0.00 in0.0 mm 0.00 in/hr0.0 mm/hr 0.01 in0.3 mm
03:28 PM 52.0°F11.1°C 42.2°F5.7°C 69% 1.9 mph NW3.1 kmh NW 4.0 mph6.4 kmh 29.52 in999.7 mb 0.00 in0.0 mm 0.00 in/hr0.0 mm/hr 0.01 in0.3 mm
03:33 PM 52.0°F11.1°C 42.2°F5.7°C 69% 1.1 mph NW1.8 kmh NW 4.0 mph6.4 kmh 29.52 in999.7 mb 0.00 in0.0 mm 0.00 in/hr0.0 mm/hr 0.01 in0.3 mm
03:38 PM 52.0°F11.1°C 42.2°F5.7°C 69% 1.1 mph NNW1.8 kmh NNW 2.7 mph4.3 kmh 29.53 in1000.0 mb 0.00 in0.0 mm 0.00 in/hr0.0 mm/hr 0.01 in0.3 mm
03:43 PM 52.2°F11.2°C 42.4°F5.8°C 69% 0.9 mph NW1.4 kmh NW 3.8 mph6.1 kmh 29.52 in999.7 mb 0.00 in0.0 mm 0.00 in/hr0.0 mm/hr 0.01 in0.3 mm
03:48 PM 52.2°F11.2°C 42.4°F5.8°C 69% 1.0 mph WSW1.6 kmh WSW 3.8 mph6.1 kmh 29.52 in999.7 mb 0.00 in0.0 mm 0.00 in/hr0.0 mm/hr 0.01 in0.3 mm
03:54 PM 52.4°F11.3°C 42.1°F5.6°C 68% 1.7 mph WSW2.7 kmh WSW 3.6 mph5.8 kmh 29.52 in999.7 mb 0.00 in0.0 mm 0.00 in/hr0.0 mm/hr 0.01 in0.3 mm
03:59 PM 52.6°F11.4°C 42.0°F5.6°C 67% 1.8 mph WSW2.9 kmh WSW 3.6 mph5.8 kmh 29.52 in999.7 mb 0.00 in0.0 mm 0.00 in/hr0.0 mm/hr 0.01 in0.3 mm
04:04 PM 52.6°F11.4°C 41.5°F5.3°C 66% 3.5 mph WSW5.6 kmh WSW 6.0 mph9.7 kmh 29.52 in999.7 mb 0.00 in0.0 mm 0.00 in/hr0.0 mm/hr 0.01 in0.3 mm
04:09 PM 52.7°F11.5°C 41.3°F5.2°C 65% 1.4 mph WSW2.3 kmh WSW 6.0 mph9.7 kmh 29.52 in999.7 mb 0.00 in0.0 mm 0.00 in/hr0.0 mm/hr 0.01 in0.3 mm
04:14 PM 52.7°F11.5°C 40.9°F4.9°C 64% 4.7 mph WSW7.6 kmh WSW 5.4 mph8.7 kmh 29.53 in1000.0 mb 0.00 in0.0 mm 0.00 in/hr0.0 mm/hr 0.01 in0.3 mm
04:19 PM 52.7°F11.5°C 41.7°F5.4°C 66% 1.0 mph WSW1.6 kmh WSW 5.4 mph8.7 kmh 29.52 in999.7 mb 0.00 in0.0 mm 0.00 in/hr0.0 mm/hr 0.01 in0.3 mm
04:24 PM 52.9°F11.6°C 41.4°F5.2°C 65% 1.3 mph WNW2.1 kmh WNW 5.4 mph8.7 kmh 29.52 in999.7 mb 0.00 in0.0 mm 0.00 in/hr0.0 mm/hr 0.01 in0.3 mm
04:29 PM 52.9°F11.6°C 41.4°F5.2°C 65% 1.6 mph NNW2.6 kmh NNW 4.7 mph7.6 kmh 29.53 in1000.0 mb 0.00 in0.0 mm 0.00 in/hr0.0 mm/hr 0.01 in0.3 mm
04:34 PM 52.7°F11.5°C 40.9°F4.9°C 64% 2.9 mph SW4.7 kmh SW 4.7 mph7.6 kmh 29.53 in1000.0 mb 0.00 in0.0 mm 0.00 in/hr0.0 mm/hr 0.01 in0.3 mm
04:39 PM 52.7°F11.5°C 40.4°F4.7°C 63% 3.5 mph W5.6 kmh W 5.4 mph8.7 kmh 29.53 in1000.0 mb 0.00 in0.0 mm 0.00 in/hr0.0 mm/hr 0.01 in0.3 mm
04:44 PM 52.7°F11.5°C 40.9°F4.9°C 64% 5.0 mph WSW8.0 kmh WSW 6.9 mph11.1 kmh 29.53 in1000.0 mb 0.00 in0.0 mm 0.00 in/hr0.0 mm/hr 0.01 in0.3 mm
04:49 PM 52.7°F11.5°C 40.9°F4.9°C 64% 4.6 mph WSW7.4 kmh WSW 6.9 mph11.1 kmh 29.53 in1000.0 mb 0.00 in0.0 mm 0.00 in/hr0.0 mm/hr 0.01 in0.3 mm
04:54 PM 52.7°F11.5°C 40.9°F4.9°C 64% 4.2 mph WSW6.8 kmh WSW 6.9 mph11.1 kmh 29.53 in1000.0 mb 0.00 in0.0 mm 0.00 in/hr0.0 mm/hr 0.01 in0.3 mm
04:58 PM 52.7°F11.5°C 40.4°F4.7°C 63% 4.6 mph W7.4 kmh W 6.9 mph11.1 kmh 29.53 in1000.0 mb 0.00 in0.0 mm 0.00 in/hr0.0 mm/hr 0.01 in0.3 mm
05:03 PM 52.7°F11.5°C 40.9°F4.9°C 64% 2.9 mph WSW4.7 kmh WSW 6.9 mph11.1 kmh 29.53 in1000.0 mb 0.00 in0.0 mm 0.00 in/hr0.0 mm/hr 0.01 in0.3 mm
05:09 PM 52.9°F11.6°C 41.1°F5.1°C 64% 2.2 mph W3.5 kmh W 4.7 mph7.6 kmh 29.53 in1000.0 mb 0.00 in0.0 mm 0.00 in/hr0.0 mm/hr 0.01 in0.3 mm
05:14 PM 52.7°F11.5°C 39.2°F4.0°C 60% 6.7 mph WNW10.8 kmh WNW 9.2 mph14.8 kmh 29.53 in1000.0 mb 0.00 in0.0 mm 0.00 in/hr0.0 mm/hr 0.01 in0.3 mm
05:19 PM 52.4°F11.3°C 40.5°F4.7°C 64% 11.1 mph WSW17.9 kmh WSW 15.0 mph24.1 kmh 29.54 in1000.3 mb 0.00 in0.0 mm 0.00 in/hr0.0 mm/hr 0.01 in0.3 mm
05:24 PM 50.2°F10.1°C 40.1°F4.5°C 68% 12.7 mph W20.4 kmh W 17.2 mph27.7 kmh 29.54 in1000.3 mb 0.00 in0.0 mm 0.00 in/hr0.0 mm/hr 0.01 in0.3 mm
05:29 PM 48.1°F8.9°C 39.8°F4.3°C 73% 13.3 mph WSW21.4 kmh WSW 17.2 mph27.7 kmh 29.54 in1000.3 mb 0.01 in0.3 mm 0.12 in/hr3.0 mm/hr 0.01 in0.3 mm
05:34 PM 47.2°F8.4°C 40.7°F4.8°C 78% 12.5 mph WSW20.1 kmh WSW 17.2 mph27.7 kmh 29.55 in1000.7 mb 0.01 in0.3 mm 0.00 in/hr0.0 mm/hr 0.01 in0.3 mm
05:39 PM 46.8°F8.2°C 40.0°F4.4°C 77% 10.8 mph WSW17.4 kmh WSW 17.0 mph27.4 kmh 29.55 in1000.7 mb 0.01 in0.3 mm 0.00 in/hr0.0 mm/hr 0.01 in0.3 mm
05:44 PM 46.8°F8.2°C 40.3°F4.6°C 78% 12.7 mph WSW20.4 kmh WSW 17.2 mph27.7 kmh 29.55 in1000.7 mb 0.01 in0.3 mm 0.00 in/hr0.0 mm/hr 0.01 in0.3 mm
05:49 PM 46.6°F8.1°C 40.5°F4.7°C 79% 10.5 mph W16.9 kmh W 17.2 mph27.7 kmh 29.55 in1000.7 mb 0.01 in0.3 mm 0.00 in/hr0.0 mm/hr 0.01 in0.3 mm
05:54 PM 46.6°F8.1°C 40.5°F4.7°C 79% 9.3 mph WSW15.0 kmh WSW 15.9 mph25.6 kmh 29.55 in1000.7 mb 0.01 in0.3 mm 0.00 in/hr0.0 mm/hr 0.01 in0.3 mm
05:59 PM 46.8°F8.2°C 40.7°F4.8°C 79% 7.6 mph WSW12.2 kmh WSW 12.1 mph19.5 kmh 29.55 in1000.7 mb 0.01 in0.3 mm 0.00 in/hr0.0 mm/hr 0.01 in0.3 mm
06:04 PM 46.8°F8.2°C 40.7°F4.8°C 79% 4.6 mph WSW7.4 kmh WSW 12.1 mph19.5 kmh 29.55 in1000.7 mb 0.01 in0.3 mm 0.00 in/hr0.0 mm/hr 0.01 in0.3 mm
06:09 PM 46.8°F8.2°C 40.3°F4.6°C 78% 5.8 mph WSW9.3 kmh WSW 8.5 mph13.7 kmh 29.55 in1000.7 mb 0.02 in0.5 mm 0.12 in/hr3.0 mm/hr 0.02 in0.5 mm
06:14 PM 47.0°F8.3°C 40.5°F4.7°C 78% 8.1 mph WSW13.0 kmh WSW 11.2 mph18.0 kmh 29.56 in1001.0 mb 0.02 in0.5 mm 0.00 in/hr0.0 mm/hr 0.02 in0.5 mm
06:20 PM 46.8°F8.2°C 41.1°F5.1°C 80% 14.4 mph W23.2 kmh W 16.8 mph27.0 kmh 29.56 in1001.0 mb 0.03 in0.8 mm 0.10 in/hr2.5 mm/hr 0.03 in0.8 mm
06:25 PM 46.3°F7.9°C 40.5°F4.7°C 80% 8.4 mph W13.5 kmh W 17.9 mph28.8 kmh 29.56 in1001.0 mb 0.03 in0.8 mm 0.00 in/hr0.0 mm/hr 0.04 in1.0 mm
06:30 PM 45.7°F7.6°C 40.2°F4.6°C 81% 6.1 mph W9.8 kmh W 17.9 mph28.8 kmh 29.56 in1001.0 mb 0.03 in0.8 mm 0.00 in/hr0.0 mm/hr 0.04 in1.0 mm
06:35 PM 45.4°F7.4°C 39.9°F4.4°C 81% 7.8 mph W12.6 kmh W 12.8 mph20.6 kmh 29.57 in1001.4 mb 0.03 in0.8 mm 0.00 in/hr0.0 mm/hr 0.04 in1.0 mm
06:40 PM 45.2°F7.3°C 40.1°F4.5°C 82% 4.8 mph W7.7 kmh W 12.8 mph20.6 kmh 29.56 in1001.0 mb 0.04 in1.0 mm 0.12 in/hr3.0 mm/hr 0.05 in1.3 mm
06:45 PM 45.0°F7.2°C 39.5°F4.2°C 81% 6.3 mph WSW10.1 kmh WSW 10.3 mph16.6 kmh 29.56 in1001.0 mb 0.04 in1.0 mm 0.00 in/hr0.0 mm/hr 0.05 in1.3 mm
06:50 PM 45.2°F7.3°C 40.1°F4.5°C 82% 4.4 mph W7.1 kmh W 10.3 mph16.6 kmh 29.56 in1001.0 mb 0.05 in1.3 mm 0.12 in/hr3.0 mm/hr 0.06 in1.5 mm
06:55 PM 45.2°F7.3°C 40.3°F4.6°C 83% 5.7 mph WSW9.2 kmh WSW 10.5 mph16.9 kmh 29.56 in1001.0 mb 0.05 in1.3 mm 0.00 in/hr0.0 mm/hr 0.06 in1.5 mm
07:00 PM 45.0°F7.2°C 40.5°F4.7°C 84% 6.6 mph W10.6 kmh W 10.5 mph16.9 kmh 29.56 in1001.0 mb 0.05 in1.3 mm 0.00 in/hr0.0 mm/hr 0.06 in1.5 mm
07:05 PM 45.2°F7.3°C 40.7°F4.8°C 84% 7.4 mph WSW11.9 kmh WSW 9.8 mph15.8 kmh 29.56 in1001.0 mb 0.04 in1.0 mm 0.00 in/hr0.0 mm/hr 0.06 in1.5 mm
07:10 PM 45.2°F7.3°C 39.7°F4.3°C 81% 3.4 mph NW5.5 kmh NW 8.7 mph14.0 kmh 29.56 in1001.0 mb 0.04 in1.0 mm 0.00 in/hr0.0 mm/hr 0.06 in1.5 mm
07:15 PM 45.4°F7.4°C 39.9°F4.4°C 81% 3.7 mph W6.0 kmh W 6.0 mph9.7 kmh 29.56 in1001.0 mb 0.05 in1.3 mm 0.12 in/hr3.0 mm/hr 0.07 in1.8 mm
07:20 PM 45.4°F7.4°C 39.9°F4.4°C 81% 1.5 mph NW2.4 kmh NW 5.4 mph8.7 kmh 29.57 in1001.4 mb 0.04 in1.0 mm 0.00 in/hr0.0 mm/hr 0.07 in1.8 mm
07:26 PM 45.2°F7.3°C 40.1°F4.5°C 82% 1.1 mph WNW1.8 kmh WNW 4.9 mph7.9 kmh 29.57 in1001.4 mb 0.03 in0.8 mm 0.00 in/hr0.0 mm/hr 0.07 in1.8 mm
07:31 PM 45.2°F7.3°C 40.1°F4.5°C 82% 0.2 mph WNW0.3 kmh WNW 2.5 mph4.0 kmh 29.57 in1001.4 mb 0.03 in0.8 mm 0.00 in/hr0.0 mm/hr 0.07 in1.8 mm
07:36 PM 45.0°F7.2°C 39.9°F4.4°C 82% 0.6 mph WSW1.0 kmh WSW 1.1 mph1.8 kmh 29.56 in1001.0 mb 0.02 in0.5 mm 0.00 in/hr0.0 mm/hr 0.07 in1.8 mm
07:41 PM 45.0°F7.2°C 39.9°F4.4°C 82% 1.7 mph SW2.7 kmh SW 2.7 mph4.3 kmh 29.56 in1001.0 mb 0.02 in0.5 mm 0.00 in/hr0.0 mm/hr 0.07 in1.8 mm
07:46 PM 45.0°F7.2°C 39.9°F4.4°C 82% 1.2 mph WSW1.9 kmh WSW 2.7 mph4.3 kmh 29.57 in1001.4 mb 0.02 in0.5 mm 0.00 in/hr0.0 mm/hr 0.07 in1.8 mm
07:51 PM 45.0°F7.2°C 40.1°F4.5°C 83% 1.0 mph SW1.6 kmh SW 2.0 mph3.2 kmh 29.57 in1001.4 mb 0.01 in0.3 mm 0.00 in/hr0.0 mm/hr 0.07 in1.8 mm
07:56 PM 45.0°F7.2°C 40.1°F4.5°C 83% 0.5 mph WSW0.8 kmh WSW 1.3 mph2.1 kmh 29.57 in1001.4 mb 0.01 in0.3 mm 0.00 in/hr0.0 mm/hr 0.07 in1.8 mm
08:01 PM 45.0°F7.2°C 40.1°F4.5°C 83% 0.3 mph SW0.5 kmh SW 1.3 mph2.1 kmh 29.57 in1001.4 mb 0.01 in0.3 mm 0.00 in/hr0.0 mm/hr 0.07 in1.8 mm
08:06 PM 45.0°F7.2°C 40.1°F4.5°C 83% 0.2 mph SW0.3 kmh SW 1.3 mph2.1 kmh 29.57 in1001.4 mb 0.01 in0.3 mm 0.00 in/hr0.0 mm/hr 0.07 in1.8 mm
08:11 PM 45.0°F7.2°C 40.1°F4.5°C 83% 0.6 mph SW1.0 kmh SW 0.9 mph1.4 kmh 29.57 in1001.4 mb 0.00 in0.0 mm 0.00 in/hr0.0 mm/hr 0.07 in1.8 mm
08:16 PM 45.0°F7.2°C 40.5°F4.7°C 84% 1.3 mph S2.1 kmh S 1.3 mph2.1 kmh 29.56 in1001.0 mb 0.00 in0.0 mm 0.00 in/hr0.0 mm/hr 0.07 in1.8 mm
08:21 PM 45.2°F7.3°C 40.3°F4.6°C 83% 2.0 mph SSE3.2 kmh SSE 2.5 mph4.0 kmh 29.57 in1001.4 mb 0.00 in0.0 mm 0.00 in/hr0.0 mm/hr 0.07 in1.8 mm
08:26 PM 45.2°F7.3°C 40.3°F4.6°C 83% 2.4 mph S3.9 kmh S 3.4 mph5.5 kmh 29.56 in1001.0 mb 0.00 in0.0 mm 0.00 in/hr0.0 mm/hr 0.07 in1.8 mm
08:31 PM 45.2°F7.3°C 40.3°F4.6°C 83% 1.8 mph S2.9 kmh S 3.4 mph5.5 kmh 29.57 in1001.4 mb 0.00 in0.0 mm 0.00 in/hr0.0 mm/hr 0.07 in1.8 mm
08:36 PM 45.0°F7.2°C 40.5°F4.7°C 84% 1.0 mph S1.6 kmh S 3.4 mph5.5 kmh 29.57 in1001.4 mb 0.00 in0.0 mm 0.00 in/hr0.0 mm/hr 0.07 in1.8 mm
08:42 PM 45.0°F7.2°C 40.5°F4.7°C 84% 1.4 mph S2.3 kmh S 2.2 mph3.5 kmh 29.57 in1001.4 mb 0.00 in0.0 mm 0.00 in/hr0.0 mm/hr 0.07 in1.8 mm
08:47 PM 45.0°F7.2°C 40.5°F4.7°C 84% 0.6 mph S1.0 kmh S 2.2 mph3.5 kmh 29.57 in1001.4 mb 0.00 in0.0 mm 0.00 in/hr0.0 mm/hr 0.07 in1.8 mm
08:52 PM 45.0°F7.2°C 40.5°F4.7°C 84% 0.6 mph SSE1.0 kmh SSE 2.2 mph3.5 kmh 29.57 in1001.4 mb 0.00 in0.0 mm 0.00 in/hr0.0 mm/hr 0.07 in1.8 mm
08:56 PM 45.0°F7.2°C 40.5°F4.7°C 84% 1.0 mph S1.6 kmh S 1.3 mph2.1 kmh 29.58 in1001.7 mb 0.00 in0.0 mm 0.00 in/hr0.0 mm/hr 0.07 in1.8 mm
09:01 PM 45.0°F7.2°C 40.5°F4.7°C 84% 0.8 mph SSW1.3 kmh SSW 1.8 mph2.9 kmh 29.58 in1001.7 mb 0.00 in0.0 mm 0.00 in/hr0.0 mm/hr 0.07 in1.8 mm
09:06 PM 45.0°F7.2°C 40.5°F4.7°C 84% 0.4 mph S0.6 kmh S 1.8 mph2.9 kmh 29.58 in1001.7 mb 0.00 in0.0 mm 0.00 in/hr0.0 mm/hr 0.07 in1.8 mm
09:11 PM 45.0°F7.2°C 40.5°F4.7°C 84% 0.3 mph SSW0.5 kmh SSW 1.1 mph1.8 kmh 29.58 in1001.7 mb 0.00 in0.0 mm 0.00 in/hr0.0 mm/hr 0.07 in1.8 mm
09:16 PM 45.0°F7.2°C 40.5°F4.7°C 84% 0.5 mph W0.8 kmh W 0.9 mph1.4 kmh 29.58 in1001.7 mb 0.00 in0.0 mm 0.00 in/hr0.0 mm/hr 0.07 in1.8 mm
09:21 PM 44.8°F7.1°C 40.3°F4.6°C 84% 1.7 mph W2.7 kmh W 2.5 mph4.0 kmh 29.59 in1002.0 mb 0.00 in0.0 mm 0.00 in/hr0.0 mm/hr 0.07 in1.8 mm
09:26 PM 45.0°F7.2°C 40.5°F4.7°C 84% 1.6 mph W2.6 kmh W 2.5 mph4.0 kmh 29.59 in1002.0 mb 0.00 in0.0 mm 0.00 in/hr0.0 mm/hr 0.07 in1.8 mm
09:31 PM 45.2°F7.3°C 40.3°F4.6°C 83% 2.4 mph WNW3.9 kmh WNW 4.7 mph7.6 kmh 29.59 in1002.0 mb 0.00 in0.0 mm 0.00 in/hr0.0 mm/hr 0.07 in1.8 mm
09:37 PM 45.5°F7.5°C 40.4°F4.7°C 82% 5.9 mph WNW9.5 kmh WNW 7.8 mph12.6 kmh 29.59 in1002.0 mb 0.00 in0.0 mm 0.00 in/hr0.0 mm/hr 0.07 in1.8 mm
09:42 PM 45.7°F7.6°C 40.2°F4.6°C 81% 3.7 mph W6.0 kmh W 7.8 mph12.6 kmh 29.59 in1002.0 mb 0.00 in0.0 mm 0.00 in/hr0.0 mm/hr 0.07 in1.8 mm
09:47 PM 45.7°F7.6°C 40.2°F4.6°C 81% 4.9 mph W7.9 kmh W 6.5 mph10.5 kmh 29.59 in1002.0 mb 0.00 in0.0 mm 0.00 in/hr0.0 mm/hr 0.07 in1.8 mm
09:52 PM 45.9°F7.7°C 40.1°F4.5°C 80% 4.9 mph W7.9 kmh W 7.2 mph11.6 kmh 29.59 in1002.0 mb 0.00 in0.0 mm 0.00 in/hr0.0 mm/hr 0.07 in1.8 mm
09:57 PM 45.7°F7.6°C 39.6°F4.2°C 79% 4.5 mph W7.2 kmh W 7.2 mph11.6 kmh 29.59 in1002.0 mb 0.00 in0.0 mm 0.00 in/hr0.0 mm/hr 0.07 in1.8 mm
10:02 PM 45.7°F7.6°C 39.2°F4.0°C 78% 5.9 mph WSW9.5 kmh WSW 7.2 mph11.6 kmh 29.59 in1002.0 mb 0.00 in0.0 mm 0.00 in/hr0.0 mm/hr 0.07 in1.8 mm
10:07 PM 45.9°F7.7°C 39.2°F4.0°C 77% 5.0 mph W8.0 kmh W 10.7 mph17.2 kmh 29.59 in1002.0 mb 0.00 in0.0 mm 0.00 in/hr0.0 mm/hr 0.07 in1.8 mm
10:12 PM 45.9°F7.7°C 39.2°F4.0°C 77% 6.3 mph WSW10.1 kmh WSW 10.7 mph17.2 kmh 29.59 in1002.0 mb 0.00 in0.0 mm 0.00 in/hr0.0 mm/hr 0.07 in1.8 mm
10:17 PM 45.9°F7.7°C 39.2°F4.0°C 77% 8.5 mph WSW13.7 kmh WSW 12.5 mph20.1 kmh 29.59 in1002.0 mb 0.00 in0.0 mm 0.00 in/hr0.0 mm/hr 0.07 in1.8 mm
10:22 PM 45.7°F7.6°C 39.0°F3.9°C 77% 7.7 mph WSW12.4 kmh WSW 12.5 mph20.1 kmh 29.59 in1002.0 mb 0.00 in0.0 mm 0.00 in/hr0.0 mm/hr 0.07 in1.8 mm
10:27 PM 45.7°F7.6°C 39.0°F3.9°C 77% 7.7 mph WSW12.4 kmh WSW 11.4 mph18.3 kmh 29.59 in1002.0 mb 0.00 in0.0 mm 0.00 in/hr0.0 mm/hr 0.07 in1.8 mm
10:32 PM 45.7°F7.6°C 39.2°F4.0°C 78% 5.9 mph W9.5 kmh W 11.4 mph18.3 kmh 29.60 in1002.4 mb 0.00 in0.0 mm 0.00 in/hr0.0 mm/hr 0.07 in1.8 mm
10:37 PM 45.7°F7.6°C 39.2°F4.0°C 78% 7.2 mph W11.6 kmh W 11.4 mph18.3 kmh 29.59 in1002.0 mb 0.00 in0.0 mm 0.00 in/hr0.0 mm/hr 0.07 in1.8 mm
10:42 PM 45.5°F7.5°C 39.1°F3.9°C 78% 9.3 mph W15.0 kmh W 12.1 mph19.5 kmh 29.60 in1002.4 mb 0.00 in0.0 mm 0.00 in/hr0.0 mm/hr 0.07 in1.8 mm
10:48 PM 45.5°F7.5°C 38.8°F3.8°C 77% 10.0 mph WSW16.1 kmh WSW 13.4 mph21.6 kmh 29.60 in1002.4 mb 0.00 in0.0 mm 0.00 in/hr0.0 mm/hr 0.07 in1.8 mm
10:53 PM 45.5°F7.5°C 38.8°F3.8°C 77% 6.8 mph WSW10.9 kmh WSW 13.4 mph21.6 kmh 29.60 in1002.4 mb 0.00 in0.0 mm 0.00 in/hr0.0 mm/hr 0.07 in1.8 mm
10:58 PM 45.4°F7.4°C 38.3°F3.5°C 76% 10.4 mph W16.7 kmh W 12.8 mph20.6 kmh 29.60 in1002.4 mb 0.00 in0.0 mm 0.00 in/hr0.0 mm/hr 0.07 in1.8 mm
11:03 PM 45.4°F7.4°C 38.6°F3.7°C 77% 8.3 mph WSW13.4 kmh WSW 12.8 mph20.6 kmh 29.60 in1002.4 mb 0.00 in0.0 mm 0.00 in/hr0.0 mm/hr 0.07 in1.8 mm
11:08 PM 45.4°F7.4°C 38.6°F3.7°C 77% 8.3 mph WSW13.4 kmh WSW 16.3 mph26.2 kmh 29.60 in1002.4 mb 0.00 in0.0 mm 0.00 in/hr0.0 mm/hr 0.07 in1.8 mm
11:13 PM 45.4°F7.4°C 38.6°F3.7°C 77% 8.5 mph WSW13.7 kmh WSW 16.3 mph26.2 kmh 29.60 in1002.4 mb 0.00 in0.0 mm 0.00 in/hr0.0 mm/hr 0.07 in1.8 mm
11:18 PM 45.2°F7.3°C 38.1°F3.4°C 76% 10.4 mph W16.7 kmh W 15.4 mph24.8 kmh 29.60 in1002.4 mb 0.00 in0.0 mm 0.00 in/hr0.0 mm/hr 0.07 in1.8 mm
11:23 PM 45.4°F7.4°C 38.3°F3.5°C 76% 8.7 mph WSW14.0 kmh WSW 15.4 mph24.8 kmh 29.60 in1002.4 mb 0.00 in0.0 mm 0.00 in/hr0.0 mm/hr 0.07 in1.8 mm
11:28 PM 45.4°F7.4°C 37.9°F3.3°C 75% 10.0 mph W16.1 kmh W 14.5 mph23.3 kmh 29.60 in1002.4 mb 0.00 in0.0 mm 0.00 in/hr0.0 mm/hr 0.07 in1.8 mm
11:33 PM 45.4°F7.4°C 37.9°F3.3°C 75% 7.9 mph W12.7 kmh W 15.7 mph25.3 kmh 29.60 in1002.4 mb 0.01 in0.3 mm 0.12 in/hr3.0 mm/hr 0.08 in2.0 mm
11:38 PM 45.4°F7.4°C 37.9°F3.3°C 75% 9.7 mph W15.6 kmh W 15.7 mph25.3 kmh 29.61 in1002.7 mb 0.01 in0.3 mm 0.00 in/hr0.0 mm/hr 0.08 in2.0 mm
11:43 PM 45.4°F7.4°C 37.9°F3.3°C 75% 7.4 mph W11.9 kmh W 13.2 mph21.2 kmh 29.61 in1002.7 mb 0.01 in0.3 mm 0.00 in/hr0.0 mm/hr 0.08 in2.0 mm
11:49 PM 45.4°F7.4°C 37.9°F3.3°C 75% 9.0 mph WSW14.5 kmh WSW 11.9 mph19.2 kmh 29.61 in1002.7 mb 0.01 in0.3 mm 0.00 in/hr0.0 mm/hr 0.08 in2.0 mm
11:54 PM 45.4°F7.4°C 37.9°F3.3°C 75% 8.6 mph W13.8 kmh W 13.0 mph20.9 kmh 29.61 in1002.7 mb 0.01 in0.3 mm 0.00 in/hr0.0 mm/hr 0.08 in2.0 mm
11:59 PM 45.2°F7.3°C 37.7°F3.2°C 75% 8.4 mph WSW13.5 kmh WSW 13.0 mph20.9 kmh 29.61 in1002.7 mb 0.01 in0.3 mm 0.00 in/hr0.0 mm/hr 0.08 in2.0 mm